CPA1604 VHHH-ROAH
Flight info
| Callsign | CPA1604 |
|---|---|
| Flight time | N/A |
| Altitude | 41000 |
| Route | DALOL V631 ENVAR M750 DADON G581 HCN J7 PICHU Q13 IGURU Y57 VELNO |
| Aircraft | A359/H-SDE2E3GHIJ3J4J5LM1ORWXY/LB1D1 |
Departure
| Time | N/A |
|---|---|
| Airport | Hong Kong International Airport (VHHH) |
Arrival
| Time | 2026-05-05 17:47 |
|---|---|
| Airport | Naha International Airport (ROAH) |
| Time | Latitude | Longitude | Altitude | Speed | Heading |
|---|---|---|---|---|---|
| 2026-05-05 16:43 | 22.15177 | 119.68157 | 40973 ft | 532 kts | 65° |
| 2026-05-05 16:43 | 22.16632 | 119.71821 | 40972 ft | 532 kts | 65° |
| 2026-05-05 16:43 | 22.19457 | 119.79200 | 40973 ft | 531 kts | 66° |
| 2026-05-05 16:44 | 22.22187 | 119.86616 | 40971 ft | 531 kts | 67° |
| 2026-05-05 16:44 | 22.24855 | 119.93984 | 40969 ft | 531 kts | 67° |
| 2026-05-05 16:45 | 22.27545 | 120.01428 | 40970 ft | 531 kts | 67° |
| 2026-05-05 16:45 | 22.30238 | 120.08853 | 40974 ft | 531 kts | 67° |
| 2026-05-05 16:46 | 22.32939 | 120.16305 | 40972 ft | 534 kts | 67° |
| 2026-05-05 16:46 | 22.35648 | 120.23798 | 40971 ft | 537 kts | 67° |
| 2026-05-05 16:47 | 22.38362 | 120.31320 | 40971 ft | 537 kts | 67° |
| 2026-05-05 16:47 | 22.41086 | 120.38887 | 40966 ft | 544 kts | 67° |
| 2026-05-05 16:48 | 22.43827 | 120.46508 | 40961 ft | 550 kts | 68° |
| 2026-05-05 16:48 | 22.46600 | 120.54239 | 40961 ft | 553 kts | 68° |
| 2026-05-05 16:49 | 22.49379 | 120.61997 | 40971 ft | 553 kts | 68° |
| 2026-05-05 16:49 | 22.52150 | 120.69758 | 40966 ft | 554 kts | 68° |
| 2026-05-05 16:50 | 22.54930 | 120.77539 | 40958 ft | 554 kts | 68° |
| 2026-05-05 16:50 | 22.57241 | 120.84020 | 40963 ft | 554 kts | 68° |
| 2026-05-05 16:51 | 22.60013 | 120.91803 | 40969 ft | 554 kts | 68° |
| 2026-05-05 16:51 | 22.62779 | 120.99600 | 40974 ft | 555 kts | 68° |
| 2026-05-05 16:52 | 22.65547 | 121.07405 | 40983 ft | 555 kts | 68° |
| 2026-05-05 16:52 | 22.68310 | 121.15209 | 40982 ft | 556 kts | 68° |
| 2026-05-05 16:53 | 22.71074 | 121.23023 | 40979 ft | 556 kts | 68° |
| 2026-05-05 16:53 | 22.73834 | 121.30846 | 40981 ft | 556 kts | 68° |
| 2026-05-05 16:54 | 22.76588 | 121.38675 | 40981 ft | 556 kts | 68° |
| 2026-05-05 16:54 | 22.79327 | 121.46472 | 40977 ft | 557 kts | 68° |
| 2026-05-05 16:55 | 22.82076 | 121.54316 | 40972 ft | 557 kts | 68° |
| 2026-05-05 16:55 | 22.84825 | 121.62169 | 40970 ft | 557 kts | 68° |
| 2026-05-05 16:56 | 22.87569 | 121.70009 | 40972 ft | 557 kts | 68° |
| 2026-05-05 16:56 | 22.90313 | 121.77871 | 40973 ft | 557 kts | 68° |
| 2026-05-05 16:57 | 22.93053 | 121.85738 | 40973 ft | 558 kts | 68° |
| 2026-05-05 16:57 | 22.95793 | 121.93619 | 40972 ft | 558 kts | 68° |
| 2026-05-05 16:58 | 22.98528 | 122.01501 | 40973 ft | 559 kts | 68° |
| 2026-05-05 16:58 | 23.01261 | 122.09391 | 40970 ft | 559 kts | 69° |
| 2026-05-05 16:59 | 23.03991 | 122.17286 | 40971 ft | 559 kts | 69° |
| 2026-05-05 16:59 | 23.06719 | 122.25190 | 40971 ft | 559 kts | 69° |
| 2026-05-05 17:00 | 23.09443 | 122.33100 | 40970 ft | 559 kts | 69° |
| 2026-05-05 17:00 | 23.12164 | 122.41014 | 40967 ft | 560 kts | 69° |
| 2026-05-05 17:01 | 23.14887 | 122.48949 | 40961 ft | 560 kts | 69° |
| 2026-05-05 17:01 | 23.17604 | 122.56879 | 40954 ft | 560 kts | 69° |
| 2026-05-05 17:02 | 23.20317 | 122.64814 | 40952 ft | 560 kts | 69° |
| 2026-05-05 17:02 | 23.23011 | 122.72707 | 40952 ft | 560 kts | 69° |
| 2026-05-05 17:03 | 23.25719 | 122.80657 | 40953 ft | 560 kts | 69° |
| 2026-05-05 17:03 | 23.28422 | 122.88609 | 40952 ft | 560 kts | 69° |
| 2026-05-05 17:04 | 23.31124 | 122.96551 | 40952 ft | 560 kts | 69° |
| 2026-05-05 17:04 | 23.32773 | 123.00377 | 40954 ft | 558 kts | 58° |
| 2026-05-05 17:04 | 23.34815 | 123.03964 | 40943 ft | 557 kts | 55° |
| 2026-05-05 17:05 | 23.39139 | 123.10961 | 40943 ft | 557 kts | 53° |
| 2026-05-05 17:05 | 23.43562 | 123.17895 | 40943 ft | 558 kts | 53° |
| 2026-05-05 17:06 | 23.47978 | 123.24837 | 40943 ft | 558 kts | 53° |
| 2026-05-05 17:06 | 23.52377 | 123.31804 | 40943 ft | 558 kts | 53° |
| 2026-05-05 17:07 | 23.56768 | 123.38786 | 40943 ft | 559 kts | 53° |
| 2026-05-05 17:07 | 23.61164 | 123.45788 | 40943 ft | 559 kts | 53° |
| 2026-05-05 17:08 | 23.65547 | 123.52776 | 40944 ft | 559 kts | 53° |
| 2026-05-05 17:08 | 23.69952 | 123.59806 | 40943 ft | 561 kts | 53° |
| 2026-05-05 17:09 | 23.74330 | 123.66805 | 40943 ft | 561 kts | 53° |
| 2026-05-05 17:09 | 23.78753 | 123.73886 | 40943 ft | 561 kts | 53° |
| 2026-05-05 17:10 | 23.83130 | 123.80901 | 40945 ft | 562 kts | 54° |
| 2026-05-05 17:10 | 23.87536 | 123.87975 | 40934 ft | 563 kts | 54° |
| 2026-05-05 17:11 | 23.91938 | 123.95052 | 40934 ft | 563 kts | 54° |
| 2026-05-05 17:11 | 23.96336 | 124.02120 | 40934 ft | 563 kts | 53° |
| 2026-05-05 17:12 | 24.00847 | 124.09118 | 40934 ft | 562 kts | 52° |
| 2026-05-05 17:12 | 24.05391 | 124.16079 | 40934 ft | 562 kts | 52° |
| 2026-05-05 17:13 | 24.09922 | 124.23059 | 40942 ft | 562 kts | 52° |
| 2026-05-05 17:13 | 24.14412 | 124.30016 | 40943 ft | 562 kts | 53° |
| 2026-05-05 17:14 | 24.18920 | 124.37022 | 40943 ft | 563 kts | 53° |
| 2026-05-05 17:14 | 24.23428 | 124.44036 | 40943 ft | 563 kts | 53° |
| 2026-05-05 17:15 | 24.27941 | 124.51068 | 40943 ft | 564 kts | 53° |
| 2026-05-05 17:15 | 24.32446 | 124.58096 | 40952 ft | 564 kts | 53° |
| 2026-05-05 17:16 | 24.36957 | 124.65144 | 40952 ft | 564 kts | 53° |
| 2026-05-05 17:16 | 24.41471 | 124.72206 | 40963 ft | 565 kts | 53° |
| 2026-05-05 17:17 | 24.45974 | 124.79260 | 40961 ft | 565 kts | 53° |
| 2026-05-05 17:17 | 24.50452 | 124.86287 | 40962 ft | 565 kts | 53° |
| 2026-05-05 17:18 | 24.54957 | 124.93366 | 40965 ft | 565 kts | 53° |
| 2026-05-05 17:18 | 24.59459 | 125.00450 | 40961 ft | 566 kts | 53° |
| 2026-05-05 17:19 | 24.63888 | 125.07430 | 40963 ft | 566 kts | 53° |
| 2026-05-05 17:19 | 24.68389 | 125.14533 | 40963 ft | 566 kts | 53° |
| 2026-05-05 17:20 | 24.72890 | 125.21647 | 40961 ft | 566 kts | 53° |
| 2026-05-05 17:20 | 24.77389 | 125.28768 | 40969 ft | 566 kts | 53° |
| 2026-05-05 17:21 | 24.81722 | 125.36006 | 40964 ft | 567 kts | 57° |
| 2026-05-05 17:22 | 24.87859 | 125.47078 | 40962 ft | 567 kts | 57° |
| 2026-05-05 17:22 | 24.91997 | 125.54484 | 40961 ft | 567 kts | 57° |
| 2026-05-05 17:23 | 24.96168 | 125.61881 | 40969 ft | 567 kts | 57° |
| 2026-05-05 17:23 | 25.00313 | 125.69223 | 40970 ft | 568 kts | 57° |
| 2026-05-05 17:24 | 25.04489 | 125.76633 | 40972 ft | 568 kts | 57° |
| 2026-05-05 17:24 | 25.08658 | 125.84049 | 40973 ft | 569 kts | 57° |
| 2026-05-05 17:25 | 25.12823 | 125.91470 | 40971 ft | 570 kts | 57° |
| 2026-05-05 17:25 | 25.17000 | 125.98924 | 40972 ft | 570 kts | 57° |
| 2026-05-05 17:25 | 25.19047 | 126.02583 | 40647 ft | 553 kts | 57° |
| 2026-05-05 17:26 | 25.21041 | 126.06153 | 39902 ft | 541 kts | 57° |
| 2026-05-05 17:26 | 25.22980 | 126.09624 | 38988 ft | 535 kts | 57° |
| 2026-05-05 17:26 | 25.24924 | 126.13106 | 38064 ft | 529 kts | 57° |
| 2026-05-05 17:26 | 25.26842 | 126.16542 | 37201 ft | 521 kts | 57° |
| 2026-05-05 17:27 | 25.28741 | 126.19945 | 35936 ft | 522 kts | 57° |
| 2026-05-05 17:27 | 25.30656 | 126.23379 | 34588 ft | 525 kts | 58° |
| 2026-05-05 17:27 | 25.32569 | 126.26811 | 33442 ft | 522 kts | 58° |
| 2026-05-05 17:27 | 25.34463 | 126.30212 | 32183 ft | 520 kts | 58° |
| 2026-05-05 17:28 | 25.36340 | 126.33587 | 30752 ft | 521 kts | 58° |
| 2026-05-05 17:28 | 25.38091 | 126.36738 | 29407 ft | 521 kts | 57° |
| 2026-05-05 17:28 | 25.39978 | 126.40139 | 28089 ft | 516 kts | 57° |
| 2026-05-05 17:28 | 25.41845 | 126.43505 | 26780 ft | 511 kts | 58° |
| 2026-05-05 17:29 | 25.43691 | 126.46836 | 25515 ft | 503 kts | 58° |
| 2026-05-05 17:29 | 25.45510 | 126.50118 | 24244 ft | 496 kts | 58° |
| 2026-05-05 17:29 | 25.47295 | 126.53344 | 23003 ft | 488 kts | 58° |
| 2026-05-05 17:29 | 25.49051 | 126.56525 | 21799 ft | 479 kts | 59° |
| 2026-05-05 17:30 | 25.50767 | 126.59644 | 20629 ft | 470 kts | 59° |
| 2026-05-05 17:30 | 25.52449 | 126.62710 | 19473 ft | 460 kts | 59° |
| 2026-05-05 17:30 | 25.54086 | 126.65686 | 18662 ft | 459 kts | 59° |
| 2026-05-05 17:30 | 25.55779 | 126.68768 | 18303 ft | 462 kts | 59° |
| 2026-05-05 17:31 | 25.57410 | 126.71743 | 17804 ft | 455 kts | 60° |
| 2026-05-05 17:31 | 25.59040 | 126.74717 | 17194 ft | 448 kts | 60° |
| 2026-05-05 17:31 | 25.60526 | 126.77428 | 16628 ft | 443 kts | 60° |
| 2026-05-05 17:31 | 25.62100 | 126.80300 | 16016 ft | 438 kts | 60° |
| 2026-05-05 17:32 | 25.63668 | 126.83165 | 15422 ft | 433 kts | 60° |
| 2026-05-05 17:32 | 25.65222 | 126.86011 | 15078 ft | 431 kts | 60° |
| 2026-05-05 17:32 | 25.66769 | 126.88845 | 14662 ft | 425 kts | 60° |
| 2026-05-05 17:32 | 25.68298 | 126.91646 | 13698 ft | 428 kts | 60° |
| 2026-05-05 17:33 | 25.69838 | 126.94466 | 12965 ft | 424 kts | 60° |
| 2026-05-05 17:33 | 25.71354 | 126.97247 | 12324 ft | 416 kts | 60° |
| 2026-05-05 17:33 | 25.72838 | 126.99968 | 11735 ft | 408 kts | 60° |
| 2026-05-05 17:33 | 25.74271 | 127.02598 | 11234 ft | 398 kts | 60° |
| 2026-05-05 17:34 | 25.75682 | 127.05189 | 11083 ft | 377 kts | 60° |
| 2026-05-05 17:34 | 25.76988 | 127.07587 | 10951 ft | 359 kts | 61° |
| 2026-05-05 17:34 | 25.78254 | 127.09912 | 10818 ft | 342 kts | 61° |
| 2026-05-05 17:34 | 25.79453 | 127.12119 | 10683 ft | 327 kts | 61° |
| 2026-05-05 17:35 | 25.80602 | 127.14236 | 10534 ft | 314 kts | 61° |
| 2026-05-05 17:35 | 25.81723 | 127.16305 | 10208 ft | 311 kts | 61° |
| 2026-05-05 17:35 | 25.82833 | 127.18354 | 9879 ft | 308 kts | 61° |
| 2026-05-05 17:35 | 25.83938 | 127.20398 | 9573 ft | 310 kts | 61° |
| 2026-05-05 17:36 | 25.85050 | 127.22451 | 9258 ft | 309 kts | 61° |
| 2026-05-05 17:36 | 25.86159 | 127.24495 | 8944 ft | 307 kts | 61° |
| 2026-05-05 17:36 | 25.87245 | 127.26495 | 8641 ft | 305 kts | 61° |
| 2026-05-05 17:36 | 25.88331 | 127.28500 | 8337 ft | 302 kts | 61° |
| 2026-05-05 17:37 | 25.89059 | 127.29851 | 8114 ft | 300 kts | 62° |
| 2026-05-05 17:37 | 25.89893 | 127.31950 | 7808 ft | 295 kts | 76° |
| 2026-05-05 17:37 | 25.90437 | 127.34129 | 7494 ft | 292 kts | 78° |
| 2026-05-05 17:37 | 25.91092 | 127.36998 | 7168 ft | 283 kts | 79° |
| 2026-05-05 17:38 | 25.91418 | 127.38412 | 7046 ft | 275 kts | 79° |
| 2026-05-05 17:38 | 25.91880 | 127.40402 | 6887 ft | 264 kts | 79° |
| 2026-05-05 17:38 | 25.92337 | 127.42363 | 6715 ft | 253 kts | 79° |
| 2026-05-05 17:38 | 25.92769 | 127.44209 | 6350 ft | 243 kts | 79° |
| 2026-05-05 17:39 | 25.93184 | 127.45995 | 5921 ft | 235 kts | 79° |
| 2026-05-05 17:39 | 25.93582 | 127.47707 | 5615 ft | 223 kts | 79° |
| 2026-05-05 17:39 | 25.93965 | 127.49359 | 5467 ft | 221 kts | 79° |
| 2026-05-05 17:39 | 25.94344 | 127.50996 | 5341 ft | 218 kts | 79° |
| 2026-05-05 17:40 | 25.94717 | 127.52605 | 5197 ft | 211 kts | 79° |
| 2026-05-05 17:40 | 25.95081 | 127.54169 | 5011 ft | 206 kts | 79° |
| 2026-05-05 17:40 | 25.95434 | 127.55689 | 4818 ft | 202 kts | 79° |
| 2026-05-05 17:40 | 25.95779 | 127.57176 | 4612 ft | 200 kts | 78° |
| 2026-05-05 17:41 | 25.96079 | 127.58678 | 4437 ft | 197 kts | 85° |
| 2026-05-05 17:41 | 25.96145 | 127.60190 | 4343 ft | 197 kts | 90° |
| 2026-05-05 17:41 | 25.96165 | 127.61704 | 4114 ft | 195 kts | 92° |
| 2026-05-05 17:41 | 25.96207 | 127.63205 | 3808 ft | 196 kts | 81° |
| 2026-05-05 17:42 | 25.96774 | 127.64584 | 3532 ft | 198 kts | 53° |
| 2026-05-05 17:42 | 25.97868 | 127.65478 | 3389 ft | 197 kts | 27° |
| 2026-05-05 17:42 | 25.99234 | 127.65729 | 3240 ft | 204 kts | 358° |
| 2026-05-05 17:42 | 26.00618 | 127.65471 | 3153 ft | 199 kts | 356° |
| 2026-05-05 17:43 | 26.01976 | 127.65306 | 3082 ft | 194 kts | 1° |
| 2026-05-05 17:43 | 26.03317 | 127.65234 | 2936 ft | 190 kts | 2° |
| 2026-05-05 17:43 | 26.04630 | 127.65175 | 2718 ft | 187 kts | 2° |
| 2026-05-05 17:43 | 26.05916 | 127.65119 | 2456 ft | 184 kts | 2° |
| 2026-05-05 17:44 | 26.07184 | 127.65067 | 2207 ft | 181 kts | 2° |
| 2026-05-05 17:44 | 26.08427 | 127.65013 | 1972 ft | 176 kts | 2° |
| 2026-05-05 17:44 | 26.09628 | 127.64961 | 1727 ft | 169 kts | 1° |
| 2026-05-05 17:44 | 26.10780 | 127.64912 | 1510 ft | 162 kts | 2° |
| 2026-05-05 17:45 | 26.11870 | 127.64867 | 1297 ft | 151 kts | 1° |
| 2026-05-05 17:45 | 26.12885 | 127.64823 | 1100 ft | 142 kts | 0° |
| 2026-05-05 17:45 | 26.13836 | 127.64781 | 923 ft | 133 kts | 1° |
| 2026-05-05 17:45 | 26.14750 | 127.64757 | 730 ft | 132 kts | 4° |
| 2026-05-05 17:46 | 26.15654 | 127.64784 | 526 ft | 130 kts | 1° |
| 2026-05-05 17:46 | 26.16562 | 127.64724 | 396 ft | 132 kts | 1° |
| 2026-05-05 17:46 | 26.17482 | 127.64688 | 229 ft | 131 kts | 1° |
| 2026-05-05 17:46 | 26.18392 | 127.64642 | 55 ft | 130 kts | 1° |
| 2026-05-05 17:47 | 26.19241 | 127.64605 | 27 ft | 104 kts | 357° |
| 2026-05-05 17:47 | 26.19803 | 127.64579 | 24 ft | 66 kts | 356° |
| 2026-05-05 17:47 | 26.20122 | 127.64565 | 24 ft | 26 kts | 2° |
| 2026-05-05 17:47 | 26.20284 | 127.64616 | 28 ft | 25 kts | 24° |
| 2026-05-05 17:48 | 26.20332 | 127.64642 | 23 ft | 0 kts | 28° |
| 2026-05-05 17:48 | 26.20337 | 127.64646 | 28 ft | 2 kts | 28° |
| 2026-05-05 17:48 | 26.20366 | 127.64663 | 28 ft | 7 kts | 27° |
| 2026-05-05 17:48 | 26.20399 | 127.64697 | 24 ft | 4 kts | 86° |
| 2026-05-05 17:49 | 26.20388 | 127.64739 | 26 ft | 7 kts | 115° |
| 2026-05-05 17:49 | 26.20382 | 127.64791 | 26 ft | 7 kts | 73° |
| 2026-05-05 17:49 | 26.20406 | 127.64823 | 27 ft | 5 kts | 48° |
| 2026-05-05 17:49 | 26.20433 | 127.64856 | 27 ft | 0 kts | 47° |